Time;durP1;ratioP1;P1;durP2;ratioP2;P2;SDS_P1;SDS_P2;PMS_P1;PMS_P2;Temp;Humidity;BMP_temperature;BMP_pressure;BME280_temperature;BME280_humidity;BME280_pressure;Samples;Min_cycle;Max_cycle;Signal;HPM_P1;HPM_P2
2023/09/29 00:02:04;;;;;;;;;;;;;;;;;;5111742;28;927;-66
2023/09/29 00:04:29;;;;;;;;;;;;;;;;;;5112726;28;1898;-66
2023/09/29 00:06:55;;;;;;;;;;;;;;;;;;5112831;28;916;-66
2023/09/29 00:09:20;;;;;;;;;;;;;;;;;;5111936;28;825;-66
2023/09/29 00:11:47;;;;;;;;;;;;;;;;;;5112552;28;943;-66
2023/09/29 00:14:13;;;;;;;;;;;;;;;;;;5112007;28;848;-66
2023/09/29 00:16:39;;;;;;;;;;;;;;;;;;5112770;28;872;-66
2023/09/29 00:19:04;;;;;;;;;;;;;;;;;;5111850;28;996;-66
2023/09/29 00:21:29;;;;;;;;;;;;;;;;;;5111593;28;844;-66
2023/09/29 00:23:55;;;;;;;;;;;;;;;;;;5112455;28;898;-66
2023/09/29 00:26:20;;;;;;;;;;;;;;;;;;5110971;28;1906;-66
2023/09/29 00:28:45;;;;;;;;;;;;;;;;;;5111915;28;990;-66
2023/09/29 00:31:11;;;;;;;;;;;;;;;;;;5111175;28;871;-66
2023/09/29 00:33:36;;;;;;;;;;;;;;;;;;5111533;28;874;-66
2023/09/29 00:36:01;;;;;;;;;;;;;;;;;;5110814;28;1212;-65
2023/09/29 00:38:26;;;;;;;;;;;;;;;;;;5111318;28;852;-65
2023/09/29 00:40:52;;;;;;;;;;;;;;;;;;5110881;28;852;-65
2023/09/29 00:43:17;;;;;;;;;;;;;;;;;;5092077;28;1191;-66
2023/09/29 00:45:43;;;;;;;;;;;;;;;;;;5111137;28;1914;-66
2023/09/29 00:48:10;;;;;;;;;;;;;;;;;;5109701;28;962;-66
2023/09/29 00:50:36;;;;;;;;;;;;;;;;;;5111019;28;875;-66
2023/09/29 00:53:11;;;;;;;;;;;;;;;;;;5110742;28;825;-66
2023/09/29 00:55:37;;;;;;;;;;;;;;;;;;5111007;28;863;-66
2023/09/29 00:58:04;;;;;;;;;;;;;;;;;;5110955;28;885;-66
2023/09/29 01:00:31;;;;;;;;;;;;;;;;;;5110994;28;927;-66
2023/09/29 01:03:00;;;;;;;;;;;;;;;;;;5111210;28;895;-66
2023/09/29 01:05:25;;;;;;;;;;;;;;;;;;5110694;28;1898;-67
2023/09/29 01:07:51;;;;;;;;;;;;;;;;;;5110916;28;812;-66
2023/09/29 01:10:17;;;;;;;;;;;;;;;;;;5112501;28;911;-66
2023/09/29 01:12:43;;;;;;;;;;;;;;;;;;5114852;28;929;-66
2023/09/29 01:15:13;;;;;;;;;;;;;;;;;;5113982;28;998;-66
2023/09/29 01:17:41;;;;;;;;;;;;;;;;;;5114142;28;852;-66
2023/09/29 01:20:13;;;;;;;;;;;;;;;;;;5113923;28;1156;-66
2023/09/29 01:22:48;;;;;;;;;;;;;;;;;;5114169;27;848;-66
2023/09/29 01:25:21;;;;;;;;;;;;;;;;;;5113743;28;1960;-66
2023/09/29 01:27:46;;;;;;;;;;;;;;;;;;5114365;28;931;-66
2023/09/29 01:30:13;;;;;;;;;;;;;;;;;;5113821;28;1054;-66
2023/09/29 01:32:40;;;;;;;;;;;;;;;;;;5114230;28;915;-66
2023/09/29 01:35:06;;;;;;;;;;;;;;;;;;5113892;28;919;-66
2023/09/29 01:37:33;;;;;;;;;;;;;;;;;;5113759;28;1095;-66
2023/09/29 01:39:58;;;;;;;;;;;;;;;;;;5114389;28;839;-66
2023/09/29 01:42:24;;;;;;;;;;;;;;;;;;5113776;28;907;-66
2023/09/29 01:44:49;;;;;;;;;;;;;;;;;;5113695;28;1963;-66
2023/09/29 01:47:14;;;;;;;;;;;;;;;;;;5113810;28;844;-65
2023/09/29 01:49:40;;;;;;;;;;;;;;;;;;5113305;28;860;-65
2023/09/29 01:52:07;;;;;;;;;;;;;;;;;;5113387;28;898;-65
2023/09/29 01:54:32;;;;;;;;;;;;;;;;;;5114039;28;847;-65
2023/09/29 01:57:01;;;;;;;;;;;;;;;;;;5114603;28;1018;-65
2023/09/29 01:59:28;;;;;;;;;;;;;;;;;;5112383;28;1123;-66
2023/09/29 02:01:53;;;;;;;;;;;;;;;;;;5114069;28;848;-66
2023/09/29 02:04:18;;;;;;;;;;;;;;;;;;5113736;28;1902;-66
2023/09/29 02:06:44;;;;;;;;;;;;;;;;;;5112898;28;1338;-66
2023/09/29 02:09:10;;;;;;;;;;;;;;;;;;5114055;28;804;-66
2023/09/29 02:11:39;;;;;;;;;;;;;;;;;;5114409;28;1177;-66
2023/09/29 02:14:05;;;;;;;;;;;;;;;;;;5114033;28;886;-66
2023/09/29 02:16:30;;;;;;;;;;;;;;;;;;5114224;28;953;-66
2023/09/29 02:18:56;;;;;;;;;;;;;;;;;;5114512;28;848;-66
2023/09/29 02:21:22;;;;;;;;;;;;;;;;;;5113729;28;814;-65
2023/09/29 02:23:48;;;;;;;;;;;;;;;;;;5114629;28;847;-67
2023/09/29 02:26:13;;;;;;;;;;;;;;;;;;5114054;28;1897;-67
2023/09/29 02:28:39;;;;;;;;;;;;;;;;;;5114367;28;867;-65
2023/09/29 02:31:10;;;;;;;;;;;;;;;;;;5114396;28;967;-65
2023/09/29 02:33:36;;;;;;;;;;;;;;;;;;5114373;28;792;-66
2023/09/29 02:36:01;;;;;;;;;;;;;;;;;;5112035;28;1048;-65
2023/09/29 02:38:26;;;;;;;;;;;;;;;;;;5112740;28;943;-66
2023/09/29 02:40:52;;;;;;;;;;;;;;;;;;5113463;28;758;-66
2023/09/29 02:43:17;;;;;;;;;;;;;;;;;;5112100;28;829;-66
2023/09/29 02:45:42;;;;;;;;;;;;;;;;;;5113421;28;1913;-66
2023/09/29 02:48:07;;;;;;;;;;;;;;;;;;5111259;28;954;-66
2023/09/29 02:50:36;;;;;;;;;;;;;;;;;;5112292;28;991;-66
2023/09/29 02:53:04;;;;;;;;;;;;;;;;;;5112989;28;943;-67
2023/09/29 02:55:29;;;;;;;;;;;;;;;;;;5112139;28;888;-66
2023/09/29 02:57:54;;;;;;;;;;;;;;;;;;5100477;28;1198;-66
2023/09/29 03:00:22;;;;;;;;;;;;;;;;;;5097192;28;1202;-66
2023/09/29 03:02:47;;;;;;;;;;;;;;;;;;5092175;28;1214;-66
2023/09/29 03:05:15;;;;;;;;;;;;;;;;;;5090596;28;1901;-66
2023/09/29 03:07:41;;;;;;;;;;;;;;;;;;5091721;28;1054;-66
2023/09/29 03:10:06;;;;;;;;;;;;;;;;;;5091903;28;939;-66
2023/09/29 03:12:32;;;;;;;;;;;;;;;;;;5089920;28;1548;-66
2023/09/29 03:14:57;;;;;;;;;;;;;;;;;;5090743;28;888;-66
2023/09/29 03:17:22;;;;;;;;;;;;;;;;;;5090122;28;1467;-66
2023/09/29 03:19:48;;;;;;;;;;;;;;;;;;5091850;28;849;-66
2023/09/29 03:22:14;;;;;;;;;;;;;;;;;;5091387;28;904;-65
2023/09/29 03:24:39;;;;;;;;;;;;;;;;;;5091827;28;1968;-66
2023/09/29 03:27:04;;;;;;;;;;;;;;;;;;5090341;28;1132;-66
2023/09/29 03:29:30;;;;;;;;;;;;;;;;;;5091604;28;746;-66
2023/09/29 03:31:55;;;;;;;;;;;;;;;;;;5091484;28;891;-66
2023/09/29 03:34:20;;;;;;;;;;;;;;;;;;5091502;28;824;-66
2023/09/29 03:36:46;;;;;;;;;;;;;;;;;;5091748;28;1122;-66
2023/09/29 03:39:11;;;;;;;;;;;;;;;;;;5091883;28;951;-66
2023/09/29 03:41:36;;;;;;;;;;;;;;;;;;5090982;28;864;-66
2023/09/29 03:44:02;;;;;;;;;;;;;;;;;;5091761;28;910;-66
2023/09/29 03:46:29;;;;;;;;;;;;;;;;;;5090867;28;1902;-66
2023/09/29 03:48:54;;;;;;;;;;;;;;;;;;5091494;28;875;-66
2023/09/29 03:51:26;;;;;;;;;;;;;;;;;;5091326;28;1030;-66
2023/09/29 03:53:55;;;;;;;;;;;;;;;;;;5091247;28;812;-66
2023/09/29 03:56:23;;;;;;;;;;;;;;;;;;5090867;28;896;-66
2023/09/29 03:58:49;;;;;;;;;;;;;;;;;;5091004;28;820;-66
2023/09/29 04:01:15;;;;;;;;;;;;;;;;;;5090503;28;617;-66
2023/09/29 04:03:40;;;;;;;;;;;;;;;;;;5089857;28;860;-66
2023/09/29 04:06:06;;;;;;;;;;;;;;;;;;5091126;28;1957;-66
2023/09/29 04:08:31;;;;;;;;;;;;;;;;;;5090643;28;897;-66
2023/09/29 04:10:56;;;;;;;;;;;;;;;;;;5089528;28;1171;-66
2023/09/29 04:13:22;;;;;;;;;;;;;;;;;;5090292;28;853;-66
2023/09/29 04:15:47;;;;;;;;;;;;;;;;;;5091065;28;828;-66
2023/09/29 04:18:12;;;;;;;;;;;;;;;;;;5090710;28;1046;-66
2023/09/29 04:20:38;;;;;;;;;;;;;;;;;;5090492;28;861;-66
2023/09/29 04:23:05;;;;;;;;;;;;;;;;;;5090612;28;820;-65
2023/09/29 04:25:31;;;;;;;;;;;;;;;;;;5090659;28;2016;-66
2023/09/29 04:27:57;;;;;;;;;;;;;;;;;;5090966;28;884;-65
2023/09/29 04:30:22;;;;;;;;;;;;;;;;;;5091276;28;825;-66
2023/09/29 04:32:48;;;;;;;;;;;;;;;;;;5091700;28;900;-66
2023/09/29 04:35:13;;;;;;;;;;;;;;;;;;5091040;28;845;-67
2023/09/29 04:37:38;;;;;;;;;;;;;;;;;;5091763;28;1173;-66
2023/09/29 04:40:04;;;;;;;;;;;;;;;;;;5091834;28;908;-66
2023/09/29 04:42:29;;;;;;;;;;;;;;;;;;5090600;28;1206;-66
2023/09/29 04:44:55;;;;;;;;;;;;;;;;;;5091534;28;1918;-67
2023/09/29 04:47:20;;;;;;;;;;;;;;;;;;5093748;28;1163;-66
2023/09/29 04:49:45;;;;;;;;;;;;;;;;;;5093350;28;887;-66
2023/09/29 04:52:10;;;;;;;;;;;;;;;;;;5094880;28;813;-66
2023/09/29 04:54:36;;;;;;;;;;;;;;;;;;5094456;28;849;-66
2023/09/29 04:57:01;;;;;;;;;;;;;;;;;;5092981;28;1292;-66
2023/09/29 04:59:26;;;;;;;;;;;;;;;;;;5092433;28;1253;-65
2023/09/29 05:01:51;;;;;;;;;;;;;;;;;;5091929;28;911;-65
2023/09/29 05:04:17;;;;;;;;;;;;;;;;;;5092626;28;1296;-66
2023/09/29 05:06:43;;;;;;;;;;;;;;;;;;5094966;28;1967;-66
2023/09/29 05:09:11;;;;;;;;;;;;;;;;;;5093255;28;781;-66
2023/09/29 05:11:36;;;;;;;;;;;;;;;;;;5094477;28;800;-66
2023/09/29 05:14:02;;;;;;;;;;;;;;;;;;5092611;28;951;-66
2023/09/29 05:16:27;;;;;;;;;;;;;;;;;;5093649;28;817;-66
2023/09/29 05:18:53;;;;;;;;;;;;;;;;;;5094119;28;899;-66
2023/09/29 05:21:20;;;;;;;;;;;;;;;;;;5093470;28;867;-66
2023/09/29 05:23:45;;;;;;;;;;;;;;;;;;5093918;28;922;-66
2023/09/29 05:26:11;;;;;;;;;;;;;;;;;;5093624;28;1953;-66
2023/09/29 05:28:37;;;;;;;;;;;;;;;;;;5093532;28;852;-66
2023/09/29 05:31:03;;;;;;;;;;;;;;;;;;5092127;28;1211;-66
2023/09/29 05:33:29;;;;;;;;;;;;;;;;;;5093092;28;897;-66
2023/09/29 05:35:55;;;;;;;;;;;;;;;;;;5093298;28;1153;-66
2023/09/29 05:38:21;;;;;;;;;;;;;;;;;;5093156;28;903;-65
2023/09/29 05:40:49;;;;;;;;;;;;;;;;;;5093339;28;925;-65
2023/09/29 05:43:15;;;;;;;;;;;;;;;;;;5093108;28;942;-65
2023/09/29 05:45:40;;;;;;;;;;;;;;;;;;5093369;28;1970;-66
2023/09/29 05:48:08;;;;;;;;;;;;;;;;;;5093297;28;844;-66
2023/09/29 05:50:34;;;;;;;;;;;;;;;;;;5093206;28;859;-66
2023/09/29 05:52:59;;;;;;;;;;;;;;;;;;5091957;28;1342;-66
2023/09/29 05:55:25;;;;;;;;;;;;;;;;;;5092491;28;1162;-66
2023/09/29 05:57:50;;;;;;;;;;;;;;;;;;5093551;28;962;-66
2023/09/29 06:00:16;;;;;;;;;;;;;;;;;;5092862;28;794;-66
2023/09/29 06:02:42;;;;;;;;;;;;;;;;;;5093722;28;849;-66
2023/09/29 06:05:07;;;;;;;;;;;;;;;;;;5093019;28;1901;-66
2023/09/29 06:07:32;;;;;;;;;;;;;;;;;;5092818;28;761;-66
2023/09/29 06:09:58;;;;;;;;;;;;;;;;;;5091693;28;762;-66
2023/09/29 06:12:23;;;;;;;;;;;;;;;;;;5093152;28;825;-66
2023/09/29 06:14:48;;;;;;;;;;;;;;;;;;5094088;28;919;-66
2023/09/29 06:17:14;;;;;;;;;;;;;;;;;;5093496;28;840;-66
2023/09/29 06:19:41;;;;;;;;;;;;;;;;;;5094256;28;812;-66
2023/09/29 06:22:06;;;;;;;;;;;;;;;;;;5093917;28;919;-66
2023/09/29 06:24:31;;;;;;;;;;;;;;;;;;5093758;28;1894;-66
2023/09/29 06:26:56;;;;;;;;;;;;;;;;;;5094258;28;1010;-66
2023/09/29 06:29:22;;;;;;;;;;;;;;;;;;5094131;28;754;-66
2023/09/29 06:31:47;;;;;;;;;;;;;;;;;;5092771;28;1081;-66
2023/09/29 06:34:12;;;;;;;;;;;;;;;;;;5093908;28;836;-66
2023/09/29 06:36:38;;;;;;;;;;;;;;;;;;5092701;28;1407;-66
2023/09/29 06:39:04;;;;;;;;;;;;;;;;;;5093213;28;872;-66
2023/09/29 06:41:29;;;;;;;;;;;;;;;;;;5091627;28;1148;-66
2023/09/29 06:43:54;;;;;;;;;;;;;;;;;;5075127;28;1101;-66
2023/09/29 06:46:20;;;;;;;;;;;;;;;;;;5092692;28;1961;-66
2023/09/29 06:48:45;;;;;;;;;;;;;;;;;;5091898;28;919;-66
2023/09/29 06:51:10;;;;;;;;;;;;;;;;;;5092837;28;856;-66
2023/09/29 06:53:36;;;;;;;;;;;;;;;;;;5090896;28;963;-66
2023/09/29 06:56:01;;;;;;;;;;;;;;;;;;5092655;28;887;-66
2023/09/29 06:58:27;;;;;;;;;;;;;;;;;;5092050;28;955;-66
2023/09/29 07:00:52;;;;;;;;;;;;;;;;;;5091417;28;1132;-65
2023/09/29 07:03:18;;;;;;;;;;;;;;;;;;5091860;28;848;-65
2023/09/29 07:05:46;;;;;;;;;;;;;;;;;;5092471;28;1878;-66
2023/09/29 07:08:11;;;;;;;;;;;;;;;;;;5092239;28;832;-66
2023/09/29 07:10:36;;;;;;;;;;;;;;;;;;5091995;28;856;-65
2023/09/29 07:13:02;;;;;;;;;;;;;;;;;;5092062;28;904;-65
2023/09/29 07:15:27;;;;;;;;;;;;;;;;;;5092280;28;781;-65
2023/09/29 07:17:52;;;;;;;;;;;;;;;;;;5090666;28;668;-66
2023/09/29 07:20:17;;;;;;;;;;;;;;;;;;5091963;28;800;-65
2023/09/29 07:22:43;;;;;;;;;;;;;;;;;;5090554;28;925;-66
2023/09/29 07:25:08;;;;;;;;;;;;;;;;;;5090411;28;1910;-65
2023/09/29 07:27:35;;;;;;;;;;;;;;;;;;5092048;28;868;-66
2023/09/29 07:30:01;;;;;;;;;;;;;;;;;;5091487;28;852;-65
2023/09/29 07:32:26;;;;;;;;;;;;;;;;;;5091618;28;919;-66
2023/09/29 07:34:51;;;;;;;;;;;;;;;;;;5091991;28;781;-65
2023/09/29 07:37:16;;;;;;;;;;;;;;;;;;5091566;28;1164;-66
2023/09/29 07:39:43;;;;;;;;;;;;;;;;;;5091985;28;1013;-66
2023/09/29 07:42:09;;;;;;;;;;;;;;;;;;5091085;28;1014;-65
2023/09/29 07:44:34;;;;;;;;;;;;;;;;;;5091338;28;1975;-65
2023/09/29 07:46:59;;;;;;;;;;;;;;;;;;5092041;28;805;-65
2023/09/29 07:49:25;;;;;;;;;;;;;;;;;;5091470;28;825;-66
2023/09/29 07:51:50;;;;;;;;;;;;;;;;;;5091825;28;927;-65
2023/09/29 07:54:16;;;;;;;;;;;;;;;;;;5091896;28;852;-65
2023/09/29 07:56:41;;;;;;;;;;;;;;;;;;5091807;28;848;-65
2023/09/29 07:59:07;;;;;;;;;;;;;;;;;;5091828;28;884;-65
2023/09/29 08:01:32;;;;;;;;;;;;;;;;;;5091917;28;860;-65
2023/09/29 08:03:57;;;;;;;;;;;;;;;;;;5090815;28;880;-65
2023/09/29 08:06:24;;;;;;;;;;;;;;;;;;5092243;28;1981;-65
2023/09/29 08:08:49;;;;;;;;;;;;;;;;;;5092728;28;920;-66
2023/09/29 08:11:15;;;;;;;;;;;;;;;;;;5092496;28;979;-65
2023/09/29 08:13:40;;;;;;;;;;;;;;;;;;5091404;28;1348;-66
2023/09/29 08:16:06;;;;;;;;;;;;;;;;;;5093548;28;900;-66
2023/09/29 08:18:31;;;;;;;;;;;;;;;;;;5093704;28;674;-66
2023/09/29 08:20:57;;;;;;;;;;;;;;;;;;5095660;28;1182;-65
2023/09/29 08:23:22;;;;;;;;;;;;;;;;;;5094411;28;912;-66
2023/09/29 08:25:48;;;;;;;;;;;;;;;;;;5096922;28;1968;-66
2023/09/29 08:28:13;;;;;;;;;;;;;;;;;;5095558;28;841;-65
2023/09/29 08:30:39;;;;;;;;;;;;;;;;;;5095751;28;836;-65
2023/09/29 08:33:04;;;;;;;;;;;;;;;;;;5095792;28;1033;-66
2023/09/29 08:35:30;;;;;;;;;;;;;;;;;;5093946;28;840;-65
2023/09/29 08:37:56;;;;;;;;;;;;;;;;;;5094894;28;1299;-65
2023/09/29 08:40:21;;;;;;;;;;;;;;;;;;5091878;28;1429;-66
2023/09/29 08:42:49;;;;;;;;;;;;;;;;;;5094052;28;1007;-66
2023/09/29 08:45:16;;;;;;;;;;;;;;;;;;5091888;28;1914;-66
2023/09/29 08:47:41;;;;;;;;;;;;;;;;;;5092976;28;836;-65
2023/09/29 08:50:11;;;;;;;;;;;;;;;;;;5074864;28;1307;-65
2023/09/29 08:52:36;;;;;;;;;;;;;;;;;;5092901;28;868;-65
2023/09/29 08:55:05;;;;;;;;;;;;;;;;;;5094871;28;840;-65
2023/09/29 08:57:30;;;;;;;;;;;;;;;;;;5095104;28;927;-66
2023/09/29 08:59:56;;;;;;;;;;;;;;;;;;5093956;28;652;-66
2023/09/29 09:02:24;;;;;;;;;;;;;;;;;;5094200;28;907;-66
2023/09/29 09:04:50;;;;;;;;;;;;;;;;;;5094780;28;1906;-66
2023/09/29 09:07:15;;;;;;;;;;;;;;;;;;5094533;28;864;-66
2023/09/29 09:09:52;;;;;;;;;;;;;;;;;;5094261;28;856;-66
2023/09/29 09:12:18;;;;;;;;;;;;;;;;;;5094710;28;884;-66
2023/09/29 09:14:44;;;;;;;;;;;;;;;;;;5094645;28;888;-66
2023/09/29 09:17:10;;;;;;;;;;;;;;;;;;5094731;28;868;-66
2023/09/29 09:19:47;;;;;;;;;;;;;;;;;;5094341;28;860;-67
2023/09/29 09:22:16;;;;;;;;;;;;;;;;;;5094592;28;931;-67
2023/09/29 09:24:42;;;;;;;;;;;;;;;;;;5092760;28;1901;-65
2023/09/29 09:27:08;;;;;;;;;;;;;;;;;;5093174;28;1226;-65
2023/09/29 09:29:42;;;;;;;;;;;;;;;;;;5092687;28;861;-65
2023/09/29 09:32:10;;;;;;;;;;;;;;;;;;5093594;28;990;-65
2023/09/29 09:34:36;;;;;;;;;;;;;;;;;;5093848;28;934;-66
2023/09/29 09:37:02;;;;;;;;;;;;;;;;;;5094067;28;1019;-66
2023/09/29 09:39:28;;;;;;;;;;;;;;;;;;5094013;28;820;-66
2023/09/29 09:41:55;;;;;;;;;;;;;;;;;;5095280;28;745;-65
2023/09/29 09:44:21;;;;;;;;;;;;;;;;;;5094674;28;873;-66
2023/09/29 09:46:52;;;;;;;;;;;;;;;;;;5094173;28;1886;-66
2023/09/29 09:49:22;;;;;;;;;;;;;;;;;;5076425;28;1464;-66
2023/09/29 09:51:50;;;;;;;;;;;;;;;;;;5095083;28;895;-66
2023/09/29 09:54:19;;;;;;;;;;;;;;;;;;5095220;28;841;-66
2023/09/29 09:56:59;;;;;;;;;;;;;;;;;;5093999;28;904;-66
2023/09/29 09:59:25;;;;;;;;;;;;;;;;;;5095523;28;805;-67
2023/09/29 10:01:51;;;;;;;;;;;;;;;;;;5095552;28;931;-66
2023/09/29 10:04:17;;;;;;;;;;;;;;;;;;5095091;28;895;-67
2023/09/29 10:06:44;;;;;;;;;;;;;;;;;;5094334;28;1951;-67
2023/09/29 10:09:11;;;;;;;;;;;;;;;;;;5095049;28;934;-67
2023/09/29 10:11:36;;;;;;;;;;;;;;;;;;5093980;28;918;-67
2023/09/29 10:14:11;;;;;;;;;;;;;;;;;;5094875;28;912;-67
2023/09/29 10:16:38;;;;;;;;;;;;;;;;;;5091637;28;1455;-67
2023/09/29 10:19:11;;;;;;;;;;;;;;;;;;5094164;28;919;-67
2023/09/29 10:21:43;;;;;;;;;;;;;;;;;;5093962;28;1057;-67
2023/09/29 10:24:11;;;;;;;;;;;;;;;;;;5092894;28;1176;-67
2023/09/29 10:26:46;;;;;;;;;;;;;;;;;;5093378;28;1905;-65
2023/09/29 10:29:18;;;;;;;;;;;;;;;;;;5094226;28;845;-66
2023/09/29 10:31:44;;;;;;;;;;;;;;;;;;5091731;28;1147;-65
2023/09/29 10:34:17;;;;;;;;;;;;;;;;;;5093784;28;982;-66
2023/09/29 10:36:42;;;;;;;;;;;;;;;;;;5092500;28;1348;-66
2023/09/29 10:39:07;;;;;;;;;;;;;;;;;;5092806;28;899;-66
2023/09/29 10:41:34;;;;;;;;;;;;;;;;;;5092318;28;832;-67
2023/09/29 10:44:00;;;;;;;;;;;;;;;;;;5093794;28;857;-66
2023/09/29 10:46:25;;;;;;;;;;;;;;;;;;5092817;28;1971;-66
2023/09/29 10:48:54;;;;;;;;;;;;;;;;;;5093254;28;966;-66
2023/09/29 10:51:24;;;;;;;;;;;;;;;;;;5091148;28;1190;-66
2023/09/29 10:53:49;;;;;;;;;;;;;;;;;;5093529;28;852;-66
2023/09/29 10:56:22;;;;;;;;;;;;;;;;;;5091792;28;1264;-66
2023/09/29 10:58:54;;;;;;;;;;;;;;;;;;5093785;28;859;-66
2023/09/29 11:01:27;;;;;;;;;;;;;;;;;;5092992;28;885;-66
2023/09/29 11:03:53;;;;;;;;;;;;;;;;;;5093561;28;840;-66
2023/09/29 11:06:20;;;;;;;;;;;;;;;;;;5091169;28;1897;-66
2023/09/29 11:09:13;;;;;;;;;;;;;;;;;;5091898;28;1247;-66
2023/09/29 11:11:39;;;;;;;;;;;;;;;;;;5090565;28;1240;-66
2023/09/29 11:14:05;;;;;;;;;;;;;;;;;;5091673;28;868;-66
2023/09/29 11:16:31;;;;;;;;;;;;;;;;;;5093033;28;852;-66
2023/09/29 11:19:06;;;;;;;;;;;;;;;;;;5092393;28;1158;-66
2023/09/29 11:21:34;;;;;;;;;;;;;;;;;;5092525;28;1018;-66
2023/09/29 11:24:10;;;;;;;;;;;;;;;;;;5093017;28;895;-66
2023/09/29 11:26:42;;;;;;;;;;;;;;;;;;5091803;28;1887;-66
2023/09/29 11:29:19;;;;;;;;;;;;;;;;;;5091213;28;1425;-66
2023/09/29 11:31:44;;;;;;;;;;;;;;;;;;5092700;28;801;-66
2023/09/29 11:34:09;;;;;;;;;;;;;;;;;;5092831;28;853;-67
2023/09/29 11:36:34;;;;;;;;;;;;;;;;;;5093004;28;1164;-66
2023/09/29 11:39:00;;;;;;;;;;;;;;;;;;5093746;28;813;-66
2023/09/29 11:41:25;;;;;;;;;;;;;;;;;;5091843;28;1556;-66
2023/09/29 11:43:51;;;;;;;;;;;;;;;;;;5093769;28;916;-66
2023/09/29 11:46:16;;;;;;;;;;;;;;;;;;5093482;28;1915;-66
2023/09/29 11:48:42;;;;;;;;;;;;;;;;;;5092466;28;994;-66
2023/09/29 11:51:08;;;;;;;;;;;;;;;;;;5074979;28;1245;-66
2023/09/29 11:53:34;;;;;;;;;;;;;;;;;;5089532;28;856;-66
2023/09/29 11:55:59;;;;;;;;;;;;;;;;;;5091128;28;765;-67
2023/09/29 11:58:24;;;;;;;;;;;;;;;;;;5072343;28;1582;-67
2023/09/29 12:00:49;;;;;;;;;;;;;;;;;;5090288;28;1206;-66
2023/09/29 12:03:17;;;;;;;;;;;;;;;;;;5090037;28;821;-66
2023/09/29 12:05:45;;;;;;;;;;;;;;;;;;5089446;28;1960;-67
2023/09/29 12:08:11;;;;;;;;;;;;;;;;;;5091626;28;876;-66
2023/09/29 12:10:36;;;;;;;;;;;;;;;;;;5091599;28;841;-66
2023/09/29 12:13:02;;;;;;;;;;;;;;;;;;5090786;28;895;-67
2023/09/29 12:15:28;;;;;;;;;;;;;;;;;;5091868;28;860;-66
2023/09/29 12:17:53;;;;;;;;;;;;;;;;;;5092759;28;899;-66
2023/09/29 12:20:19;;;;;;;;;;;;;;;;;;5090872;28;1097;-67
2023/09/29 12:22:45;;;;;;;;;;;;;;;;;;5090033;28;883;-66
2023/09/29 12:25:14;;;;;;;;;;;;;;;;;;5091227;28;1902;-66
2023/09/29 12:27:41;;;;;;;;;;;;;;;;;;5091309;28;832;-67
2023/09/29 12:30:08;;;;;;;;;;;;;;;;;;5090616;28;1315;-66
2023/09/29 12:32:34;;;;;;;;;;;;;;;;;;5091248;28;871;-67
2023/09/29 12:34:59;;;;;;;;;;;;;;;;;;5091600;28;920;-66
2023/09/29 12:37:25;;;;;;;;;;;;;;;;;;5091179;28;1157;-66
2023/09/29 12:39:50;;;;;;;;;;;;;;;;;;5092226;28;884;-66
2023/09/29 12:42:15;;;;;;;;;;;;;;;;;;5091507;28;835;-66
2023/09/29 12:44:41;;;;;;;;;;;;;;;;;;5091273;28;1922;-66
2023/09/29 12:47:07;;;;;;;;;;;;;;;;;;5092100;28;825;-66
2023/09/29 12:49:32;;;;;;;;;;;;;;;;;;5090073;28;836;-66
2023/09/29 12:51:57;;;;;;;;;;;;;;;;;;5090225;28;1159;-66
2023/09/29 12:54:22;;;;;;;;;;;;;;;;;;5090660;28;979;-66
2023/09/29 12:56:48;;;;;;;;;;;;;;;;;;5090642;28;950;-66
2023/09/29 12:59:13;;;;;;;;;;;;;;;;;;5090982;28;1069;-66
2023/09/29 13:01:39;;;;;;;;;;;;;;;;;;5090307;28;828;-66
2023/09/29 13:04:04;;;;;;;;;;;;;;;;;;5089550;28;1422;-66
2023/09/29 13:06:30;;;;;;;;;;;;;;;;;;5094285;28;1971;-66
2023/09/29 13:08:56;;;;;;;;;;;;;;;;;;5094803;28;1153;-66
2023/09/29 13:11:21;;;;;;;;;;;;;;;;;;5092997;28;1326;-66
2023/09/29 13:13:46;;;;;;;;;;;;;;;;;;5092804;28;891;-67
2023/09/29 13:16:13;;;;;;;;;;;;;;;;;;5092564;28;1343;-67
2023/09/29 13:18:39;;;;;;;;;;;;;;;;;;5092320;28;1230;-67
2023/09/29 13:21:05;;;;;;;;;;;;;;;;;;5095238;28;1152;-67
2023/09/29 13:23:30;;;;;;;;;;;;;;;;;;5077019;28;1405;-67
2023/09/29 13:25:55;;;;;;;;;;;;;;;;;;5096085;28;1906;-66
2023/09/29 13:28:20;;;;;;;;;;;;;;;;;;5095063;28;916;-66
2023/09/29 13:30:46;;;;;;;;;;;;;;;;;;5095531;28;1092;-66
2023/09/29 13:33:11;;;;;;;;;;;;;;;;;;5093939;28;879;-66
2023/09/29 13:35:37;;;;;;;;;;;;;;;;;;5094317;28;907;-66
2023/09/29 13:38:04;;;;;;;;;;;;;;;;;;5094754;28;1208;-66
2023/09/29 13:40:29;;;;;;;;;;;;;;;;;;5093976;28;903;-66
2023/09/29 13:42:55;;;;;;;;;;;;;;;;;;5094540;28;785;-66
2023/09/29 13:45:20;;;;;;;;;;;;;;;;;;5093305;28;1887;-66
2023/09/29 13:47:45;;;;;;;;;;;;;;;;;;5092417;28;1202;-66
2023/09/29 13:50:11;;;;;;;;;;;;;;;;;;5093516;28;833;-66
2023/09/29 13:52:36;;;;;;;;;;;;;;;;;;5092538;28;832;-66
2023/09/29 13:55:01;;;;;;;;;;;;;;;;;;5093182;28;1058;-66
2023/09/29 13:57:27;;;;;;;;;;;;;;;;;;5093006;28;895;-66
2023/09/29 13:59:53;;;;;;;;;;;;;;;;;;5093389;28;856;-66
2023/09/29 14:02:18;;;;;;;;;;;;;;;;;;5091043;28;1166;-66
2023/09/29 14:04:44;;;;;;;;;;;;;;;;;;5092557;28;1036;-67
2023/09/29 14:07:09;;;;;;;;;;;;;;;;;;5094451;28;924;-67
2023/09/29 14:09:38;;;;;;;;;;;;;;;;;;5093494;28;836;-67
2023/09/29 14:12:04;;;;;;;;;;;;;;;;;;5094230;28;896;-67
2023/09/29 14:14:30;;;;;;;;;;;;;;;;;;5093746;28;856;-67
2023/09/29 14:16:55;;;;;;;;;;;;;;;;;;5093407;28;990;-67
2023/09/29 14:19:20;;;;;;;;;;;;;;;;;;5094203;28;888;-67
2023/09/29 14:21:47;;;;;;;;;;;;;;;;;;5093020;28;896;-67
2023/09/29 14:24:13;;;;;;;;;;;;;;;;;;5094071;28;793;-67
2023/09/29 14:26:39;;;;;;;;;;;;;;;;;;5093229;28;1965;-67
2023/09/29 14:29:04;;;;;;;;;;;;;;;;;;5093725;28;868;-67
2023/09/29 14:31:29;;;;;;;;;;;;;;;;;;5092912;28;852;-66
2023/09/29 14:33:54;;;;;;;;;;;;;;;;;;5092049;28;1199;-66
2023/09/29 14:36:20;;;;;;;;;;;;;;;;;;5092328;28;1092;-67
2023/09/29 14:38:45;;;;;;;;;;;;;;;;;;5092918;28;884;-66
2023/09/29 14:41:10;;;;;;;;;;;;;;;;;;5093518;28;954;-66
2023/09/29 14:43:36;;;;;;;;;;;;;;;;;;5092836;28;955;-66
2023/09/29 14:46:05;;;;;;;;;;;;;;;;;;5093433;28;1973;-66
2023/09/29 14:48:31;;;;;;;;;;;;;;;;;;5093345;28;766;-66
2023/09/29 14:50:56;;;;;;;;;;;;;;;;;;5091326;28;1450;-67
2023/09/29 14:53:21;;;;;;;;;;;;;;;;;;5091439;28;924;-67
2023/09/29 14:55:47;;;;;;;;;;;;;;;;;;5092461;28;1019;-67
2023/09/29 14:58:13;;;;;;;;;;;;;;;;;;5091477;28;836;-67
2023/09/29 15:00:42;;;;;;;;;;;;;;;;;;5092100;28;804;-67
2023/09/29 15:03:07;;;;;;;;;;;;;;;;;;5092508;28;820;-67
2023/09/29 15:05:36;;;;;;;;;;;;;;;;;;5091818;28;1906;-67
2023/09/29 15:08:02;;;;;;;;;;;;;;;;;;5091987;28;896;-67
2023/09/29 15:10:27;;;;;;;;;;;;;;;;;;5092093;28;903;-67
2023/09/29 15:12:52;;;;;;;;;;;;;;;;;;5093409;28;946;-67
2023/09/29 15:15:18;;;;;;;;;;;;;;;;;;5093313;28;899;-67
2023/09/29 15:17:43;;;;;;;;;;;;;;;;;;5092725;28;841;-66
2023/09/29 15:20:09;;;;;;;;;;;;;;;;;;5093057;28;987;-67
2023/09/29 15:22:35;;;;;;;;;;;;;;;;;;5074031;28;1534;-67
2023/09/29 15:25:00;;;;;;;;;;;;;;;;;;5092173;28;1968;-67
2023/09/29 15:27:26;;;;;;;;;;;;;;;;;;5090278;28;1011;-67
2023/09/29 15:29:52;;;;;;;;;;;;;;;;;;5092266;28;793;-67
2023/09/29 15:32:18;;;;;;;;;;;;;;;;;;5093469;28;940;-67
2023/09/29 15:34:43;;;;;;;;;;;;;;;;;;5091006;28;923;-67
2023/09/29 15:37:08;;;;;;;;;;;;;;;;;;5091937;28;1073;-67
2023/09/29 15:39:33;;;;;;;;;;;;;;;;;;5091256;28;1001;-66
2023/09/29 15:41:58;;;;;;;;;;;;;;;;;;5073019;28;1325;-66
2023/09/29 15:44:24;;;;;;;;;;;;;;;;;;5091810;28;880;-67
2023/09/29 15:46:49;;;;;;;;;;;;;;;;;;5090801;28;1918;-66
2023/09/29 15:49:17;;;;;;;;;;;;;;;;;;5091386;28;785;-66
2023/09/29 15:51:42;;;;;;;;;;;;;;;;;;5090770;28;911;-66
2023/09/29 15:54:07;;;;;;;;;;;;;;;;;;5091006;28;990;-66
2023/09/29 15:56:33;;;;;;;;;;;;;;;;;;5090679;28;856;-66
2023/09/29 15:58:58;;;;;;;;;;;;;;;;;;5091415;28;844;-66
2023/09/29 16:01:23;;;;;;;;;;;;;;;;;;5091552;28;971;-66
2023/09/29 16:03:49;;;;;;;;;;;;;;;;;;5089639;28;1165;-66
2023/09/29 16:06:17;;;;;;;;;;;;;;;;;;5091640;28;1971;-66
2023/09/29 16:08:42;;;;;;;;;;;;;;;;;;5091397;28;935;-65
2023/09/29 16:11:07;;;;;;;;;;;;;;;;;;5091979;28;797;-66
2023/09/29 16:13:34;;;;;;;;;;;;;;;;;;5090160;28;853;-66
2023/09/29 16:16:03;;;;;;;;;;;;;;;;;;5092031;28;861;-66
2023/09/29 16:18:28;;;;;;;;;;;;;;;;;;5091756;28;919;-67
2023/09/29 16:20:54;;;;;;;;;;;;;;;;;;5090959;28;829;-66
2023/09/29 16:23:19;;;;;;;;;;;;;;;;;;5092004;28;924;-66
2023/09/29 16:25:44;;;;;;;;;;;;;;;;;;5091656;28;1901;-67
2023/09/29 16:28:10;;;;;;;;;;;;;;;;;;5092497;28;963;-66
2023/09/29 16:30:36;;;;;;;;;;;;;;;;;;5092210;28;841;-66
2023/09/29 16:33:02;;;;;;;;;;;;;;;;;;5091584;28;924;-66
2023/09/29 16:35:27;;;;;;;;;;;;;;;;;;5092177;28;840;-67
2023/09/29 16:37:52;;;;;;;;;;;;;;;;;;5091899;28;1410;-66
2023/09/29 16:40:17;;;;;;;;;;;;;;;;;;5093614;28;954;-66
2023/09/29 16:42:43;;;;;;;;;;;;;;;;;;5095053;28;883;-66
2023/09/29 16:45:08;;;;;;;;;;;;;;;;;;5095782;28;1953;-66
2023/09/29 16:47:33;;;;;;;;;;;;;;;;;;5095337;28;848;-66
2023/09/29 16:50:00;;;;;;;;;;;;;;;;;;5093950;28;1314;-66
2023/09/29 16:52:25;;;;;;;;;;;;;;;;;;5094661;28;824;-66
2023/09/29 16:54:50;;;;;;;;;;;;;;;;;;5095844;28;832;-67
2023/09/29 16:57:15;;;;;;;;;;;;;;;;;;5096198;28;1230;-67
2023/09/29 16:59:41;;;;;;;;;;;;;;;;;;5095831;28;899;-67
2023/09/29 17:02:07;;;;;;;;;;;;;;;;;;5095633;28;840;-67
2023/09/29 17:04:32;;;;;;;;;;;;;;;;;;5095874;28;1561;-67
2023/09/29 17:06:57;;;;;;;;;;;;;;;;;;5094765;28;1898;-67
2023/09/29 17:09:22;;;;;;;;;;;;;;;;;;5093811;28;1849;-67